Time;durP1;ratioP1;P1;durP2;ratioP2;P2;SDS_P1;SDS_P2;PMS_P1;PMS_P2;Temp;Humidity;BMP_temperature;BMP_pressure;BME280_temperature;BME280_humidity;BME280_pressure;Samples;Min_cycle;Max_cycle;Signal;HPM_P1;HPM_P2
2024/02/07 00:00:03;;;;;;;17.15;11.88;;;;;;;2.25;61.48;93444.25;521838;28;864;-63
2024/02/07 00:00:19;;;;;;;18.10;12.00;;;;;;;2.29;61.14;93444.03;521738;28;955;-63
2024/02/07 00:00:35;;;;;;;19.40;12.27;;;;;;;2.31;61.43;93441.56;521719;28;1908;-64
2024/02/07 00:00:51;;;;;;;18.70;11.63;;;;;;;2.33;61.57;93446.50;521799;28;801;-63
2024/02/07 00:01:06;;;;;;;17.45;10.82;;;;;;;2.34;61.30;93443.28;521864;28;839;-63
2024/02/07 00:01:22;;;;;;;15.23;10.30;;;;;;;2.35;61.28;93444.78;521801;28;880;-63
2024/02/07 00:01:37;;;;;;;13.82;9.68;;;;;;;2.38;60.73;93453.94;521776;28;879;-63
2024/02/07 00:01:53;;;;;;;12.73;9.63;;;;;;;2.38;60.91;93451.97;521786;28;800;-63
2024/02/07 00:02:08;;;;;;;14.07;9.90;;;;;;;2.39;61.53;93450.72;521805;28;1071;-63
2024/02/07 00:02:24;;;;;;;15.17;9.83;;;;;;;2.39;61.37;93450.72;521743;28;859;-64
2024/02/07 00:02:39;;;;;;;13.23;9.20;;;;;;;2.42;61.20;93448.97;521795;28;864;-63
2024/02/07 00:02:54;;;;;;;11.97;8.47;;;;;;;2.44;60.90;93449.97;521817;28;827;-63
2024/02/07 00:03:10;;;;;;;11.20;8.63;;;;;;;2.44;61.53;93447.25;521668;28;856;-63
2024/02/07 00:03:26;;;;;;;15.57;10.57;;;;;;;2.46;61.42;93450.22;521794;28;844;-63
2024/02/07 00:03:42;;;;;;;20.25;12.82;;;;;;;2.45;60.71;93448.72;521776;28;974;-63
2024/02/07 00:04:03;;;;;;;23.25;14.55;;;;;;;2.45;60.76;93450.72;522748;28;1112;-64
2024/02/07 00:04:18;;;;;;;24.65;15.88;;;;;;;2.42;60.33;93444.28;525831;28;894;-63
2024/02/07 00:04:34;;;;;;;27.98;16.45;;;;;;;2.47;59.97;93453.69;525901;28;832;-63
2024/02/07 00:04:49;;;;;;;28.07;16.57;;;;;;;2.42;59.66;93449.72;525218;28;1198;-64
2024/02/07 00:05:05;;;;;;;27.88;17.00;;;;;;;2.42;60.35;93451.69;523794;28;1013;-63
2024/02/07 00:05:21;;;;;;;30.10;18.23;;;;;;;2.41;60.06;93453.69;523829;28;856;-63
2024/02/07 00:05:36;;;;;;;29.50;18.98;;;;;;;2.40;60.13;93449.47;523851;28;912;-63
2024/02/07 00:05:52;;;;;;;25.60;17.43;;;;;;;2.41;60.27;93450.94;523642;28;1376;-64
2024/02/07 00:06:07;;;;;;;24.08;16.13;;;;;;;2.42;60.27;93443.53;523980;28;789;-63
2024/02/07 00:06:22;;;;;;;26.50;16.70;;;;;;;2.43;59.96;93445.75;523858;28;760;-64
2024/02/07 00:06:38;;;;;;;30.80;18.27;;;;;;;2.45;60.04;93451.44;523857;28;839;-63
2024/02/07 00:06:53;;;;;;;34.87;20.20;;;;;;;2.46;60.12;93452.94;523869;28;748;-63
2024/02/07 00:07:09;;;;;;;33.97;20.92;;;;;;;2.46;59.75;93444.75;523901;28;963;-63
2024/02/07 00:07:25;;;;;;;30.33;19.93;;;;;;;2.39;60.49;93447.97;523723;28;875;-63
2024/02/07 00:07:40;;;;;;;32.35;20.08;;;;;;;2.34;60.50;93443.28;523805;28;886;-63
2024/02/07 00:07:56;;;;;;;34.80;21.07;;;;;;;2.35;60.63;93442.03;523887;28;781;-63
2024/02/07 00:08:11;;;;;;;33.10;19.98;;;;;;;2.29;60.38;93442.06;523878;28;840;-63
2024/02/07 00:08:26;;;;;;;32.57;18.80;;;;;;;2.29;60.24;93449.47;523734;28;820;-64
2024/02/07 00:08:43;;;;;;;32.08;19.20;;;;;;;2.27;60.36;93447.22;523767;28;832;-63
2024/02/07 00:08:58;;;;;;;30.05;19.38;;;;;;;2.25;60.39;93446.25;523796;28;808;-63
2024/02/07 00:09:14;;;;;;;30.52;19.42;;;;;;;2.26;60.07;93447.72;523841;28;844;-63
2024/02/07 00:09:29;;;;;;;31.83;18.97;;;;;;;2.26;60.33;93445.75;523825;28;780;-63
2024/02/07 00:09:44;;;;;;;29.53;18.63;;;;;;;2.25;60.50;93451.72;523862;28;839;-63
2024/02/07 00:10:00;;;;;;;29.15;19.73;;;;;;;2.22;60.96;93447.25;523763;28;811;-62
2024/02/07 00:10:16;;;;;;;27.77;18.75;;;;;;;2.16;60.70;93443.78;523867;28;846;-64
2024/02/07 00:10:32;;;;;;;25.00;15.70;;;;;;;2.13;60.69;93455.66;523847;28;810;-64
2024/02/07 00:10:47;;;;;;;26.33;15.07;;;;;;;2.09;61.09;93447.75;523868;28;803;-63
2024/02/07 00:11:03;;;;;;;23.20;13.93;;;;;;;2.08;61.40;93448.97;523867;28;795;-64
2024/02/07 00:11:18;;;;;;;17.50;12.03;;;;;;;2.07;61.10;93450.22;523850;28;784;-63
2024/02/07 00:11:34;;;;;;;15.15;10.57;;;;;;;2.06;61.25;93454.16;523797;28;799;-63
2024/02/07 00:11:50;;;;;;;16.13;10.57;;;;;;;2.03;61.47;93447.00;523824;28;862;-63
2024/02/07 00:12:06;;;;;;;15.90;10.77;;;;;;;1.89;61.49;93426.16;523897;28;804;-63
2024/02/07 00:12:21;;;;;;;15.57;10.73;;;;;;;2.08;61.51;93448.25;523828;28;827;-63
2024/02/07 00:12:37;;;;;;;15.82;10.30;;;;;;;2.08;61.35;93450.97;523820;28;780;-64
2024/02/07 00:12:52;;;;;;;16.23;10.60;;;;;;;2.03;61.35;93451.69;523821;28;840;-64
2024/02/07 00:13:08;;;;;;;16.95;10.93;;;;;;;1.97;61.78;93448.94;523869;28;776;-64
2024/02/07 00:13:23;;;;;;;16.63;10.60;;;;;;;1.87;61.57;93446.94;523835;28;842;-63
2024/02/07 00:13:39;;;;;;;16.65;10.95;;;;;;;1.82;61.87;93447.69;523829;28;808;-63
2024/02/07 00:13:54;;;;;;;14.60;10.60;;;;;;;1.76;62.00;93446.94;523856;28;828;-63
2024/02/07 00:14:09;;;;;;;14.25;10.50;;;;;;;1.75;62.36;93448.19;523860;28;883;-63
2024/02/07 00:14:25;;;;;;;16.67;11.03;;;;;;;1.73;62.49;93448.69;523886;28;761;-63
2024/02/07 00:14:40;;;;;;;20.07;12.10;;;;;;;1.75;62.13;93448.19;523795;28;870;-63
2024/02/07 00:14:56;;;;;;;22.75;13.43;;;;;;;1.77;62.58;93440.25;523902;28;836;-63
2024/02/07 00:15:11;;;;;;;23.00;14.00;;;;;;;1.80;62.10;93447.47;523789;28;804;-63
2024/02/07 00:15:27;;;;;;;20.60;13.77;;;;;;;1.82;62.44;93455.88;523832;28;776;-64
2024/02/07 00:15:42;;;;;;;18.77;14.13;;;;;;;1.87;62.51;93455.88;523793;28;776;-63
2024/02/07 00:15:57;;;;;;;18.38;14.25;;;;;;;1.89;62.11;93444.47;523777;28;939;-64
2024/02/07 00:16:13;;;;;;;20.43;14.63;;;;;;;1.91;62.16;93445.47;523928;28;765;-64
2024/02/07 00:16:29;;;;;;;23.50;16.30;;;;;;;1.93;62.12;93445.72;523810;28;789;-63
2024/02/07 00:16:44;;;;;;;25.88;17.23;;;;;;;1.94;62.40;93447.22;523873;28;756;-63
2024/02/07 00:17:00;;;;;;;29.67;18.27;;;;;;;1.94;62.13;93449.94;523777;28;776;-63
2024/02/07 00:17:15;;;;;;;31.08;18.00;;;;;;;1.96;62.13;93444.75;523898;28;793;-63
2024/02/07 00:17:31;;;;;;;28.17;17.03;;;;;;;1.96;62.57;93444.75;523807;28;851;-64
2024/02/07 00:17:46;;;;;;;27.70;17.70;;;;;;;1.97;62.62;93445.50;523869;28;792;-63
2024/02/07 00:18:02;;;;;;;27.83;17.80;;;;;;;1.98;62.32;93439.56;523829;28;816;-63
2024/02/07 00:18:18;;;;;;;26.98;16.58;;;;;;;1.99;62.44;93445.75;523844;28;848;-63
2024/02/07 00:18:34;;;;;;;26.17;15.45;;;;;;;2.01;62.49;93440.56;523527;28;1599;-62
2024/02/07 00:18:49;;;;;;;24.67;15.33;;;;;;;2.04;62.59;93445.00;523661;28;828;-64
2024/02/07 00:19:04;;;;;;;24.42;15.80;;;;;;;1.81;62.21;93403.41;523743;28;760;-64
2024/02/07 00:19:20;;;;;;;24.33;15.73;;;;;;;2.10;62.25;93443.03;523568;28;848;-63
2024/02/07 00:19:35;;;;;;;27.20;17.10;;;;;;;2.12;62.22;93443.28;523663;28;772;-63
2024/02/07 00:19:51;;;;;;;28.73;18.53;;;;;;;2.14;61.95;93438.81;523598;28;792;-63
2024/02/07 00:20:07;;;;;;;29.27;18.42;;;;;;;2.15;62.09;93443.03;523736;28;797;-63
2024/02/07 00:20:22;;;;;;;29.75;18.23;;;;;;;2.18;62.08;93444.78;523640;28;892;-63
2024/02/07 00:20:38;;;;;;;27.03;16.37;;;;;;;2.19;62.14;93445.50;523630;28;1922;-63
2024/02/07 00:20:54;;;;;;;23.77;14.48;;;;;;;2.08;61.97;93423.72;523711;28;752;-63
2024/02/07 00:21:09;;;;;;;22.60;14.23;;;;;;;2.20;61.74;93436.84;523666;28;823;-63
2024/02/07 00:21:25;;;;;;;22.83;14.23;;;;;;;2.21;61.38;93440.28;523608;28;946;-63
2024/02/07 00:21:40;;;;;;;27.17;16.30;;;;;;;2.22;61.90;93439.81;523616;28;879;-63
2024/02/07 00:21:56;;;;;;;27.17;16.70;;;;;;;2.21;61.55;93437.56;523689;28;1066;-63
2024/02/07 00:22:11;;;;;;;26.48;15.93;;;;;;;2.15;62.05;93442.28;523637;28;812;-63
2024/02/07 00:22:27;;;;;;;23.43;14.17;;;;;;;2.10;61.67;93443.75;523660;28;756;-63
2024/02/07 00:22:42;;;;;;;18.25;11.77;;;;;;;2.07;61.70;93439.31;523705;28;792;-63
2024/02/07 00:22:58;;;;;;;16.63;10.93;;;;;;;2.05;61.66;93441.03;523624;28;796;-63
2024/02/07 00:23:13;;;;;;;17.30;11.10;;;;;;;2.04;61.39;93437.56;523707;28;886;-63
2024/02/07 00:23:28;;;;;;;20.52;11.80;;;;;;;2.01;61.98;93435.84;523550;28;1112;-64
2024/02/07 00:23:44;;;;;;;19.73;11.50;;;;;;;2.02;61.86;93436.56;523662;28;973;-63
2024/02/07 00:23:59;;;;;;;18.13;10.50;;;;;;;2.02;61.50;93434.59;523570;28;852;-63
2024/02/07 00:24:15;;;;;;;18.67;10.77;;;;;;;2.04;61.97;93440.28;523643;28;794;-64
2024/02/07 00:24:30;;;;;;;15.82;10.52;;;;;;;2.06;61.85;93432.38;523600;28;867;-63
2024/02/07 00:24:46;;;;;;;14.47;9.80;;;;;;;2.08;61.66;93434.63;523704;28;1062;-63
2024/02/07 00:25:01;;;;;;;13.13;9.40;;;;;;;2.06;61.52;93429.66;523680;28;777;-63
2024/02/07 00:25:17;;;;;;;12.43;8.50;;;;;;;2.08;61.28;93434.63;523605;28;788;-63
2024/02/07 00:25:32;;;;;;;12.50;8.30;;;;;;;2.10;61.69;93437.59;523609;28;808;-63
2024/02/07 00:25:48;;;;;;;12.43;8.53;;;;;;;2.13;60.91;93439.31;523677;28;863;-63
2024/02/07 00:26:03;;;;;;;14.18;8.50;;;;;;;2.08;60.78;93429.91;523660;28;784;-63
2024/02/07 00:26:19;;;;;;;12.73;8.00;;;;;;;2.11;61.11;93436.34;523639;28;815;-63
2024/02/07 00:26:35;;;;;;;9.98;7.28;;;;;;;2.10;61.22;93434.88;523664;28;765;-63
2024/02/07 00:26:51;;;;;;;10.93;7.37;;;;;;;2.10;61.14;93438.31;523523;28;891;-64
2024/02/07 00:27:06;;;;;;;10.90;7.33;;;;;;;2.12;60.85;93435.84;523661;28;1059;-63
2024/02/07 00:27:22;;;;;;;10.30;6.93;;;;;;;2.15;61.01;93436.84;523638;28;744;-63
2024/02/07 00:27:37;;;;;;;10.13;6.80;;;;;;;2.16;61.03;93435.59;523678;28;1072;-64
2024/02/07 00:27:54;;;;;;;10.03;6.87;;;;;;;2.15;61.32;93434.84;523690;28;772;-63
2024/02/07 00:28:09;;;;;;;13.00;7.18;;;;;;;2.15;61.16;93434.84;523639;28;867;-64
2024/02/07 00:28:25;;;;;;;12.37;7.20;;;;;;;2.16;61.16;93435.59;523688;28;816;-63
2024/02/07 00:28:40;;;;;;;10.48;7.05;;;;;;;2.14;61.56;93430.63;523551;28;840;-64
2024/02/07 00:28:55;;;;;;;10.63;7.30;;;;;;;2.12;61.05;93435.84;523758;28;792;-64
2024/02/07 00:29:11;;;;;;;10.98;6.85;;;;;;;2.13;61.14;93437.34;523614;28;891;-63
2024/02/07 00:29:26;;;;;;;10.93;6.40;;;;;;;2.15;60.58;93442.28;523641;28;760;-64
2024/02/07 00:29:42;;;;;;;10.00;6.30;;;;;;;2.14;60.96;93432.63;523684;28;824;-64
2024/02/07 00:29:57;;;;;;;9.05;6.28;;;;;;;2.15;60.81;93439.56;523618;28;968;-63
2024/02/07 00:30:13;;;;;;;10.27;6.80;;;;;;;2.15;60.81;93434.09;523658;28;776;-64
2024/02/07 00:30:29;;;;;;;11.23;7.22;;;;;;;2.16;60.57;93435.59;523595;28;907;-63
2024/02/07 00:30:44;;;;;;;9.85;7.25;;;;;;;2.19;60.74;93434.59;523653;28;939;-64
2024/02/07 00:31:00;;;;;;;8.02;6.78;;;;;;;2.20;60.60;93430.66;523575;28;847;-63
2024/02/07 00:31:15;;;;;;;8.67;6.83;;;;;;;2.21;60.39;93432.13;523631;28;768;-64
2024/02/07 00:31:31;;;;;;;10.40;7.50;;;;;;;2.19;60.54;93429.91;523592;28;846;-63
2024/02/07 00:31:46;;;;;;;11.65;9.10;;;;;;;2.21;60.70;93426.69;523722;28;831;-64
2024/02/07 00:32:02;;;;;;;14.00;9.60;;;;;;;2.23;60.55;93426.94;523648;28;855;-63
2024/02/07 00:32:17;;;;;;;15.60;9.02;;;;;;;2.25;60.44;93432.66;523541;28;820;-63
2024/02/07 00:32:33;;;;;;;15.07;9.43;;;;;;;2.25;60.23;93438.81;523607;28;764;-63
2024/02/07 00:32:48;;;;;;;17.13;10.17;;;;;;;2.26;60.28;93434.13;523620;28;757;-63
2024/02/07 00:33:04;;;;;;;16.43;9.83;;;;;;;2.26;60.37;93434.13;523693;28;848;-63
2024/02/07 00:33:19;;;;;;;13.73;9.50;;;;;;;2.26;60.46;93436.84;523614;28;812;-63
2024/02/07 00:33:35;;;;;;;14.57;9.80;;;;;;;2.20;60.24;93433.38;523503;28;844;-63
2024/02/07 00:33:50;;;;;;;14.30;9.70;;;;;;;2.20;60.15;93436.09;523770;28;777;-63
2024/02/07 00:34:05;;;;;;;17.40;11.03;;;;;;;2.21;60.21;93443.03;523847;28;887;-63
2024/02/07 00:34:22;;;;;;;22.02;15.02;;;;;;;2.17;60.28;93437.09;523780;28;849;-64
2024/02/07 00:34:37;;;;;;;29.50;19.65;;;;;;;2.11;60.65;93436.34;523877;28;863;-64
2024/02/07 00:34:52;;;;;;;34.13;20.97;;;;;;;2.09;60.34;93433.38;523844;28;844;-63
2024/02/07 00:35:08;;;;;;;33.10;19.73;;;;;;;2.08;60.56;93435.34;523753;28;820;-63
2024/02/07 00:35:23;;;;;;;31.13;18.90;;;;;;;2.10;61.02;93429.41;523770;28;816;-64
2024/02/07 00:35:39;;;;;;;27.05;18.77;;;;;;;2.12;60.54;93435.84;523857;28;752;-64
2024/02/07 00:35:54;;;;;;;24.90;18.27;;;;;;;2.13;60.99;93431.13;523867;28;792;-64
2024/02/07 00:36:10;;;;;;;28.05;19.55;;;;;;;2.13;61.03;93436.59;523850;28;784;-64
2024/02/07 00:36:25;;;;;;;35.27;21.90;;;;;;;2.11;60.98;93434.38;523741;28;792;-63
2024/02/07 00:36:41;;;;;;;36.65;23.00;;;;;;;2.10;60.86;93432.88;523784;28;925;-64
2024/02/07 00:36:56;;;;;;;35.40;23.13;;;;;;;2.11;60.67;93430.91;523858;28;761;-63
2024/02/07 00:37:12;;;;;;;34.15;21.73;;;;;;;2.12;60.77;93432.38;523787;28;852;-63
2024/02/07 00:37:27;;;;;;;27.97;18.43;;;;;;;2.05;60.74;93436.34;523800;28;793;-63
2024/02/07 00:37:43;;;;;;;24.27;16.30;;;;;;;2.04;61.37;93429.41;523800;28;785;-64
2024/02/07 00:37:58;;;;;;;24.33;16.37;;;;;;;2.06;61.09;93434.34;523865;28;843;-63
2024/02/07 00:38:14;;;;;;;25.10;17.37;;;;;;;2.08;61.12;93429.91;523888;28;911;-63
2024/02/07 00:38:30;;;;;;;24.45;17.27;;;;;;;2.10;61.44;93429.41;523801;28;929;-64
2024/02/07 00:38:45;;;;;;;22.45;15.77;;;;;;;2.09;61.35;93433.38;523793;28;836;-63
2024/02/07 00:39:00;;;;;;;22.17;16.10;;;;;;;2.10;61.50;93427.41;523761;28;860;-63
2024/02/07 00:39:16;;;;;;;22.85;15.95;;;;;;;2.13;60.88;93431.13;523871;28;740;-64
2024/02/07 00:39:31;;;;;;;22.70;15.30;;;;;;;2.15;61.00;93434.09;523793;28;813;-63
2024/02/07 00:39:47;;;;;;;22.00;15.68;;;;;;;2.16;60.75;93428.19;523881;28;843;-64
2024/02/07 00:40:03;;;;;;;23.17;16.20;;;;;;;2.18;61.18;93433.13;523833;28;804;-63
2024/02/07 00:40:19;;;;;;;23.48;16.33;;;;;;;2.17;61.03;93428.91;523776;28;850;-63
2024/02/07 00:40:34;;;;;;;23.33;16.63;;;;;;;2.19;60.61;93427.19;523649;28;1961;-64
2024/02/07 00:40:50;;;;;;;23.58;17.00;;;;;;;2.18;60.74;93419.50;523819;28;852;-63
2024/02/07 00:41:05;;;;;;;23.60;16.27;;;;;;;2.16;60.70;93428.19;523813;28;891;-64
2024/02/07 00:41:24;;;;;;;25.08;16.40;;;;;;;2.15;60.28;93428.66;523760;28;1083;-63
2024/02/07 00:41:40;;;;;;;23.38;16.38;;;;;;;2.16;60.80;93430.16;523793;28;836;-64
2024/02/07 00:41:55;;;;;;;21.97;16.33;;;;;;;2.17;60.49;93431.63;523780;28;785;-63
2024/02/07 00:42:10;;;;;;;24.38;16.42;;;;;;;2.18;60.74;93433.88;523837;28;845;-63
2024/02/07 00:42:26;;;;;;;23.67;15.90;;;;;;;2.21;60.82;93432.88;523876;28;944;-63
2024/02/07 00:42:41;;;;;;;22.50;15.87;;;;;;;2.23;60.59;93432.41;523764;28;776;-64
2024/02/07 00:42:57;;;;;;;23.63;16.48;;;;;;;2.24;60.41;93431.16;523832;28;1073;-63
2024/02/07 00:43:15;;;;;;;25.88;17.13;;;;;;;2.25;60.58;93433.38;523846;28;832;-64
2024/02/07 00:43:32;;;;;;;30.33;17.70;;;;;;;2.15;60.93;93418.53;523808;28;922;-64
2024/02/07 00:43:48;;;;;;;29.90;18.23;;;;;;;2.28;60.70;93435.09;523807;28;812;-64
2024/02/07 00:44:04;;;;;;;31.70;19.92;;;;;;;2.29;60.79;93428.44;523864;28;869;-63
2024/02/07 00:44:19;;;;;;;33.10;20.60;;;;;;;2.32;60.62;93436.84;523773;28;839;-63
2024/02/07 00:44:36;;;;;;;30.90;20.08;;;;;;;2.33;60.68;93430.91;523782;28;750;-64
2024/02/07 00:44:52;;;;;;;31.83;21.42;;;;;;;2.36;60.39;93427.16;523776;28;883;-63
2024/02/07 00:45:07;;;;;;;33.97;21.57;;;;;;;2.37;60.79;93433.38;523844;28;757;-63
2024/02/07 00:45:23;;;;;;;32.42;20.80;;;;;;;2.35;60.55;93428.41;523780;28;875;-63
2024/02/07 00:45:39;;;;;;;31.00;19.63;;;;;;;2.36;60.70;93426.44;523815;28;903;-63
2024/02/07 00:45:54;;;;;;;32.00;19.08;;;;;;;2.31;60.96;93422.47;523864;28;860;-64
2024/02/07 00:46:10;;;;;;;29.42;18.10;;;;;;;2.28;60.93;93426.19;523775;28;753;-63
2024/02/07 00:46:25;;;;;;;25.00;16.90;;;;;;;2.22;60.93;93423.47;523813;28;882;-64
2024/02/07 00:46:40;;;;;;;27.83;17.60;;;;;;;2.10;61.24;93424.69;523820;28;781;-63
2024/02/07 00:46:56;;;;;;;29.57;18.23;;;;;;;1.95;61.72;93420.75;523871;28;844;-63
2024/02/07 00:47:12;;;;;;;28.23;18.60;;;;;;;1.85;62.41;93416.75;523785;28;776;-63
2024/02/07 00:47:28;;;;;;;29.80;18.35;;;;;;;1.79;62.27;93418.75;523662;28;916;-63
2024/02/07 00:47:43;;;;;;;32.30;17.85;;;;;;;1.78;62.64;93423.44;523826;28;828;-63
2024/02/07 00:47:59;;;;;;;34.37;18.23;;;;;;;1.76;62.40;93420.47;523716;28;768;-63
2024/02/07 00:48:14;;;;;;;33.35;17.45;;;;;;;1.75;62.55;93419.00;523795;28;800;-63
2024/02/07 00:48:30;;;;;;;28.17;16.63;;;;;;;1.74;62.24;93419.47;523808;28;863;-63
2024/02/07 00:48:45;;;;;;;25.40;17.23;;;;;;;1.76;62.53;93427.88;523773;28;840;-63
2024/02/07 00:49:03;;;;;;;26.40;17.52;;;;;;;1.75;62.58;93418.25;523678;28;856;-63
2024/02/07 00:49:19;;;;;;;25.27;17.10;;;;;;;1.70;62.52;93422.44;523805;28;887;-63
2024/02/07 00:49:34;;;;;;;27.20;17.30;;;;;;;1.64;62.64;93423.66;523787;28;840;-63
2024/02/07 00:49:49;;;;;;;27.20;16.55;;;;;;;1.52;63.03;93412.75;523804;28;875;-63
2024/02/07 00:50:06;;;;;;;24.37;15.83;;;;;;;1.43;63.16;93421.13;523882;28;883;-63
2024/02/07 00:50:22;;;;;;;23.63;15.43;;;;;;;1.33;63.45;93417.16;523655;28;1608;-63
2024/02/07 00:50:37;;;;;;;22.87;14.77;;;;;;;1.23;64.20;93413.16;523856;28;856;-63
2024/02/07 00:50:53;;;;;;;21.92;12.95;;;;;;;1.16;64.41;93416.34;523875;28;856;-63
2024/02/07 00:51:08;;;;;;;18.53;11.30;;;;;;;1.14;64.11;93426.22;523962;28;756;-63
2024/02/07 00:51:24;;;;;;;17.08;9.80;;;;;;;1.13;64.55;93425.47;524217;28;907;-63
2024/02/07 00:51:40;;;;;;;14.00;7.75;;;;;;;1.14;64.45;93416.09;524146;28;776;-63
2024/02/07 00:51:55;;;;;;;11.37;7.13;;;;;;;1.12;63.88;93420.53;524278;28;773;-63
2024/02/07 00:52:10;;;;;;;10.27;6.60;;;;;;;1.08;64.16;93420.78;524229;28;832;-63
2024/02/07 00:52:26;;;;;;;9.50;6.47;;;;;;;1.07;64.17;93415.81;524270;28;876;-63
2024/02/07 00:52:41;;;;;;;10.93;7.80;;;;;;;1.09;64.18;93421.50;524147;28;802;-63
2024/02/07 00:52:57;;;;;;;10.80;8.20;;;;;;;1.11;64.34;93416.31;524034;28;781;-63
2024/02/07 00:53:12;;;;;;;12.55;8.43;;;;;;;1.15;64.03;93416.84;524006;28;852;-63
2024/02/07 00:53:28;;;;;;;12.67;8.47;;;;;;;1.18;64.10;93411.16;524028;28;764;-63
2024/02/07 00:53:43;;;;;;;11.40;8.18;;;;;;;1.19;64.03;93418.06;524058;28;1103;-63
2024/02/07 00:53:59;;;;;;;14.17;8.97;;;;;;;1.23;63.85;93412.41;523966;28;780;-63
2024/02/07 00:54:14;;;;;;;16.03;10.07;;;;;;;1.26;63.86;93417.63;524127;28;972;-63
2024/02/07 00:54:29;;;;;;;17.05;10.43;;;;;;;1.30;63.59;93420.84;523903;28;848;-63
2024/02/07 00:54:45;;;;;;;17.73;10.37;;;;;;;1.34;63.67;93415.91;524170;28;919;-63
2024/02/07 00:55:00;;;;;;;16.45;10.63;;;;;;;1.37;63.19;93417.66;524097;28;852;-62
2024/02/07 00:55:16;;;;;;;15.57;10.27;;;;;;;1.41;63.34;93422.84;524087;28;905;-63
2024/02/07 00:55:31;;;;;;;15.10;9.50;;;;;;;1.43;63.38;93421.13;523949;28;890;-63
2024/02/07 00:55:47;;;;;;;13.10;8.90;;;;;;;1.48;63.24;93422.38;524110;28;812;-63
2024/02/07 00:56:03;;;;;;;12.88;9.10;;;;;;;1.50;63.00;93419.91;524024;28;784;-63
2024/02/07 00:56:18;;;;;;;13.60;9.05;;;;;;;1.48;63.09;93416.94;523986;28;825;-63
2024/02/07 00:56:34;;;;;;;12.53;8.77;;;;;;;1.50;63.24;93422.63;524040;28;804;-64
2024/02/07 00:56:50;;;;;;;12.35;8.70;;;;;;;1.29;63.25;93400.34;524038;28;872;-63
2024/02/07 00:57:05;;;;;;;12.77;8.30;;;;;;;1.42;63.40;93418.91;524040;28;824;-64
2024/02/07 00:57:21;;;;;;;16.90;9.57;;;;;;;1.42;63.31;93424.34;524084;28;838;-63
2024/02/07 00:57:37;;;;;;;19.20;10.65;;;;;;;1.44;63.67;93419.16;524006;28;836;-63
2024/02/07 00:57:52;;;;;;;16.90;10.35;;;;;;;1.47;63.67;93426.34;524055;28;792;-63
2024/02/07 00:58:09;;;;;;;16.23;10.53;;;;;;;1.47;63.38;93413.47;524073;28;789;-63
2024/02/07 00:58:24;;;;;;;17.60;11.43;;;;;;;1.48;63.66;93417.69;524087;28;843;-63
2024/02/07 00:58:40;;;;;;;18.20;10.88;;;;;;;1.49;63.33;93424.59;524051;28;804;-64
2024/02/07 00:58:55;;;;;;;15.73;9.73;;;;;;;1.51;63.28;93418.69;524020;28;811;-63
2024/02/07 00:59:11;;;;;;;15.93;10.23;;;;;;;1.56;63.10;93422.66;524001;28;1029;-63
2024/02/07 00:59:27;;;;;;;15.82;10.18;;;;;;;1.58;63.40;93420.19;524025;28;860;-63
2024/02/07 00:59:43;;;;;;;16.40;10.50;;;;;;;1.61;63.26;93421.91;524005;28;942;-63
2024/02/07 00:59:58;;;;;;;19.50;12.00;;;;;;;1.64;62.84;93418.22;523972;28;816;-64
2024/02/07 01:00:14;;;;;;;20.57;12.23;;;;;;;1.66;63.13;93410.31;524043;28;819;-63
2024/02/07 01:00:30;;;;;;;20.00;12.18;;;;;;;1.67;62.64;93425.41;523967;28;1910;-63
2024/02/07 01:00:45;;;;;;;20.80;12.25;;;;;;;1.65;62.64;93411.53;524110;28;819;-64
2024/02/07 01:01:01;;;;;;;17.33;10.00;;;;;;;1.63;62.40;93414.00;523993;28;872;-63
2024/02/07 01:01:16;;;;;;;12.32;7.72;;;;;;;1.64;62.87;93413.53;523977;28;788;-63
2024/02/07 01:01:31;;;;;;;10.93;7.20;;;;;;;1.63;62.64;93411.28;524080;28;856;-63
2024/02/07 01:01:47;;;;;;;9.75;6.80;;;;;;;1.61;62.47;93408.31;524081;28;812;-63
2024/02/07 01:02:03;;;;;;;10.97;7.07;;;;;;;1.69;62.71;93420.22;523994;28;824;-63
2024/02/07 01:02:18;;;;;;;11.25;7.03;;;;;;;1.72;62.62;93419.97;524067;28;840;-63
2024/02/07 01:02:35;;;;;;;11.15;6.07;;;;;;;1.71;62.52;93412.31;523987;28;773;-63
2024/02/07 01:02:51;;;;;;;10.63;5.78;;;;;;;1.72;62.18;93427.38;524014;28;864;-63
2024/02/07 01:03:06;;;;;;;9.07;6.03;;;;;;;1.73;62.78;93421.47;524074;28;903;-63
2024/02/07 01:03:22;;;;;;;8.07;5.60;;;;;;;1.76;62.51;93425.16;524046;28;840;-63
2024/02/07 01:03:37;;;;;;;8.30;6.00;;;;;;;1.77;62.53;93421.22;523983;28;835;-63
2024/02/07 01:03:53;;;;;;;9.97;6.50;;;;;;;1.80;62.32;93414.78;524027;28;819;-63
2024/02/07 01:04:08;;;;;;;8.40;5.57;;;;;;;1.80;62.42;93420.97;523893;28;1152;-63
2024/02/07 01:04:23;;;;;;;7.77;4.83;;;;;;;1.83;62.07;93419.22;524066;28;768;-63
2024/02/07 01:04:39;;;;;;;8.43;4.85;;;;;;;1.81;62.79;93414.28;524076;28;840;-63
2024/02/07 01:04:54;;;;;;;6.87;4.73;;;;;;;1.82;62.41;93413.03;525343;28;1167;-63
2024/02/07 01:05:12;;;;;;;5.47;4.20;;;;;;;1.85;61.62;93419.47;526054;28;1141;-63
2024/02/07 01:05:27;;;;;;;6.82;4.35;;;;;;;1.86;61.79;93410.09;526058;28;827;-63
2024/02/07 01:05:42;;;;;;;8.27;5.03;;;;;;;1.86;61.84;93412.81;526172;28;788;-63
2024/02/07 01:05:59;;;;;;;7.55;5.28;;;;;;;1.86;62.04;93407.38;525999;28;1270;-64
2024/02/07 01:06:15;;;;;;;7.15;5.28;;;;;;;1.58;61.63;93377.41;526165;28;886;-63
2024/02/07 01:06:31;;;;;;;7.45;5.53;;;;;;;1.85;61.85;93416.75;526087;28;836;-63
2024/02/07 01:06:46;;;;;;;7.85;6.13;;;;;;;1.84;61.65;93421.44;526114;28;848;-62
2024/02/07 01:07:02;;;;;;;9.32;6.63;;;;;;;1.86;61.65;93412.81;526076;28;804;-63
2024/02/07 01:07:17;;;;;;;10.20;6.13;;;;;;;1.87;61.93;93414.28;526165;28;811;-63
2024/02/07 01:07:33;;;;;;;8.75;5.50;;;;;;;1.86;61.82;93418.25;526077;28;800;-64
2024/02/07 01:07:48;;;;;;;6.77;5.20;;;;;;;1.85;61.82;93416.75;526143;28;899;-63
2024/02/07 01:08:04;;;;;;;6.95;5.13;;;;;;;1.84;61.58;93416.00;526199;28;898;-64
2024/02/07 01:08:19;;;;;;;7.57;5.17;;;;;;;1.84;61.72;93416.00;526246;28;756;-63
2024/02/07 01:08:35;;;;;;;7.45;5.40;;;;;;;1.82;61.65;93418.47;526305;28;970;-63
2024/02/07 01:08:50;;;;;;;7.63;5.67;;;;;;;1.81;61.64;93424.44;526317;28;812;-63
2024/02/07 01:09:06;;;;;;;7.93;5.97;;;;;;;1.77;61.95;93413.03;526328;28;887;-64
2024/02/07 01:09:22;;;;;;;9.77;6.65;;;;;;;1.78;61.73;93417.25;526239;28;932;-62
2024/02/07 01:09:37;;;;;;;10.03;6.80;;;;;;;1.77;61.99;93421.22;526265;28;780;-63
2024/02/07 01:09:52;;;;;;;8.90;6.53;;;;;;;1.77;62.14;93427.41;526307;28;926;-64
2024/02/07 01:10:10;;;;;;;9.30;6.50;;;;;;;1.79;62.16;93416.00;526320;28;804;-63
2024/02/07 01:10:25;;;;;;;11.73;6.72;;;;;;;1.80;61.75;93412.06;526259;28;922;-63
2024/02/07 01:10:42;;;;;;;11.40;6.82;;;;;;;1.81;62.13;93417.00;526297;28;820;-64
2024/02/07 01:10:57;;;;;;;11.85;7.72;;;;;;;1.74;62.47;93417.50;526205;28;942;-63
2024/02/07 01:11:13;;;;;;;13.90;8.23;;;;;;;1.69;62.53;93418.22;526273;28;792;-63
2024/02/07 01:11:28;;;;;;;10.77;7.80;;;;;;;1.61;62.79;93419.94;526247;28;808;-63
2024/02/07 01:11:44;;;;;;;10.17;7.80;;;;;;;1.51;62.88;93416.72;526312;28;926;-63
2024/02/07 01:11:59;;;;;;;10.07;7.93;;;;;;;1.46;62.98;93422.13;526288;28;785;-63
2024/02/07 01:12:15;;;;;;;10.30;8.30;;;;;;;1.38;62.84;93421.88;526284;28;911;-63
2024/02/07 01:12:31;;;;;;;10.83;7.80;;;;;;;1.29;63.38;93421.34;526185;28;1137;-64
2024/02/07 01:12:46;;;;;;;12.10;7.60;;;;;;;1.22;63.51;93419.81;526339;28;819;-63
2024/02/07 01:13:03;;;;;;;12.98;8.18;;;;;;;1.08;63.74;93399.03;526277;28;852;-63
2024/02/07 01:13:18;;;;;;;10.93;7.53;;;;;;;1.25;63.69;93418.13;526262;28;871;-63
2024/02/07 01:13:34;;;;;;;10.68;7.30;;;;;;;1.28;63.92;93417.88;526313;28;1027;-63
2024/02/07 01:13:50;;;;;;;11.40;7.33;;;;;;;1.33;63.80;93411.72;526224;28;918;-63
2024/02/07 01:14:06;;;;;;;11.05;7.03;;;;;;;1.33;63.46;93417.16;526327;28;845;-63
2024/02/07 01:14:22;;;;;;;8.55;6.15;;;;;;;1.31;63.81;93422.34;526255;28;1620;-63
2024/02/07 01:14:37;;;;;;;8.13;6.33;;;;;;;1.30;63.62;93420.84;526275;28;953;-63
2024/02/07 01:14:53;;;;;;;8.80;6.20;;;;;;;1.32;63.90;93414.94;526312;28;768;-63
2024/02/07 01:15:09;;;;;;;7.97;5.50;;;;;;;1.34;63.45;93424.06;526172;28;801;-62
2024/02/07 01:15:24;;;;;;;8.30;5.60;;;;;;;1.35;63.47;93417.41;526128;28;819;-63
2024/02/07 01:15:39;;;;;;;8.75;5.35;;;;;;;1.37;63.34;93416.91;526307;28;813;-63